createdAt,value
2023-01-25T00:01:08.647Z,-1.73
2023-01-25T00:04:14.926Z,-1.88
2023-01-25T00:07:22.028Z,-1.99
2023-01-25T00:10:30.783Z,-1.91
2023-01-25T00:13:37.704Z,-1.85
2023-01-25T00:16:44.920Z,-1.73
2023-01-25T00:19:51.877Z,-1.61
2023-01-25T00:22:57.952Z,-1.70
2023-01-25T00:26:07.933Z,-1.56
2023-01-25T00:29:16.964Z,-1.60
2023-01-25T00:32:51.175Z,-1.66
2023-01-25T00:36:00.328Z,-1.83
2023-01-25T00:39:08.807Z,-1.70
2023-01-25T00:42:19.651Z,-1.61
2023-01-25T00:45:26.675Z,-1.52
2023-01-25T00:48:34.129Z,-1.67
2023-01-25T00:51:41.133Z,-1.66
2023-01-25T00:54:47.627Z,-1.63
2023-01-25T00:57:57.182Z,-1.62
2023-01-25T01:01:03.371Z,-1.69
2023-01-25T01:04:10.631Z,-1.75
2023-01-25T01:07:20.088Z,-1.69
2023-01-25T01:10:27.020Z,-1.54
2023-01-25T01:13:36.621Z,-1.53
2023-01-25T01:16:44.620Z,-1.57
2023-01-25T01:19:51.092Z,-1.62
2023-01-25T01:22:58.378Z,-1.67
2023-01-25T01:26:05.158Z,-1.69
2023-01-25T01:29:16.754Z,-2.07
2023-01-25T01:32:22.935Z,-1.87
2023-01-25T01:35:33.121Z,-1.83
2023-01-25T01:38:39.611Z,-1.81
2023-01-25T01:41:46.761Z,-1.82
2023-01-25T01:44:57.464Z,-1.81
2023-01-25T01:48:08.838Z,-1.61
2023-01-25T01:51:25.654Z,-1.60
2023-01-25T01:54:39.770Z,-1.63
2023-01-25T01:57:55.495Z,-1.59
2023-01-25T02:01:05.594Z,-1.51
2023-01-25T02:04:13.770Z,-1.41
2023-01-25T02:07:30.589Z,-1.48
2023-01-25T02:10:40.333Z,-1.62
2023-01-25T02:13:47.710Z,-1.54
2023-01-25T02:16:57.709Z,-1.54
2023-01-25T02:20:15.913Z,-1.50
2023-01-25T02:23:32.897Z,-1.66
2023-01-25T02:26:42.931Z,-1.75
2023-01-25T02:29:50.694Z,-1.66
2023-01-25T02:32:57.839Z,-1.63
2023-01-25T02:36:24.684Z,-1.73
2023-01-25T02:39:32.942Z,-1.76
2023-01-25T02:42:46.890Z,-1.71
2023-01-25T02:46:06.748Z,-1.67
2023-01-25T02:49:14.206Z,-1.67
2023-01-25T02:52:21.647Z,-1.64
2023-01-25T02:55:27.815Z,-1.57
2023-01-25T02:58:37.613Z,-1.50
2023-01-25T03:01:46.567Z,-1.56
2023-01-25T03:04:54.170Z,-1.55
2023-01-25T03:08:00.356Z,-1.51
2023-01-25T03:11:10.779Z,-1.50
2023-01-25T03:14:20.323Z,-1.51
2023-01-25T03:17:27.503Z,-1.60
2023-01-25T03:20:33.754Z,-1.78
2023-01-25T03:23:41.155Z,-1.77
2023-01-25T03:27:03.989Z,-1.66
2023-01-25T03:30:25.066Z,-1.65
2023-01-25T03:33:32.564Z,-1.52
2023-01-25T03:36:39.776Z,-1.64
2023-01-25T03:39:46.224Z,-1.53
2023-01-25T03:42:53.905Z,-1.39
2023-01-25T03:46:05.250Z,-1.45
2023-01-25T03:49:14.046Z,-1.41
2023-01-25T03:52:20.647Z,-1.44
2023-01-25T03:55:28.533Z,-1.35
2023-01-25T03:58:35.132Z,-1.27
2023-01-25T04:01:45.143Z,-1.27
2023-01-25T04:04:51.570Z,-1.25
2023-01-25T04:08:01.115Z,-1.24
2023-01-25T04:11:14.969Z,-1.20
2023-01-25T04:14:42.534Z,-1.29
2023-01-25T04:17:54.317Z,-1.37
2023-01-25T04:21:04.723Z,-1.47
2023-01-25T04:24:11.762Z,-1.59
2023-01-25T04:27:20.779Z,-1.41
2023-01-25T04:30:39.340Z,-1.42
2023-01-25T04:33:50.706Z,-1.41
2023-01-25T04:36:59.148Z,-1.24
2023-01-25T04:40:13.641Z,-1.34
2023-01-25T04:43:26.446Z,-1.49
2023-01-25T04:46:38.369Z,-1.39
2023-01-25T04:49:48.107Z,-1.26
2023-01-25T04:52:58.516Z,-1.34
2023-01-25T04:56:06.158Z,-1.30
2023-01-25T04:59:21.133Z,-1.37
2023-01-25T05:02:27.695Z,-1.42
2023-01-25T05:05:37.325Z,-1.32
2023-01-25T05:08:49.660Z,-1.23
2023-01-25T05:11:56.865Z,-1.13
2023-01-25T05:15:09.934Z,-1.23
2023-01-25T05:18:17.330Z,-1.30
2023-01-25T05:21:38.638Z,-1.24
2023-01-25T05:24:47.541Z,-1.15
2023-01-25T05:27:55.847Z,-1.14
2023-01-25T05:31:28.824Z,-1.19
2023-01-25T05:34:36.392Z,-1.23
2023-01-25T05:37:45.982Z,-1.38
2023-01-25T05:41:02.377Z,-1.47
2023-01-25T05:44:09.519Z,-1.37
2023-01-25T05:47:23.485Z,-1.27
2023-01-25T05:50:31.477Z,-1.19
2023-01-25T05:53:45.234Z,-1.11
2023-01-25T05:56:53.425Z,-1.07
2023-01-25T05:59:59.699Z,-1.04
2023-01-25T06:03:07.170Z,-0.98
2023-01-25T06:06:15.520Z,-0.98
2023-01-25T06:09:27.290Z,-1.01
2023-01-25T06:12:34.093Z,-1.02
2023-01-25T06:15:41.514Z,-1.11
2023-01-25T06:19:09.187Z,-1.11
2023-01-25T06:22:25.759Z,-1.17
2023-01-25T06:25:34.407Z,-1.16
2023-01-25T06:28:42.364Z,-1.19
2023-01-25T06:31:48.356Z,-1.17
2023-01-25T06:34:55.232Z,-1.17
2023-01-25T06:38:04.518Z,-1.08
2023-01-25T06:41:15.258Z,-1.12
2023-01-25T06:44:21.346Z,-1.26
2023-01-25T06:47:28.308Z,-1.20
2023-01-25T06:50:34.516Z,-1.24
2023-01-25T06:53:44.203Z,-1.23
2023-01-25T06:56:52.972Z,-1.32
2023-01-25T07:00:00.155Z,-1.39
2023-01-25T07:03:06.403Z,-1.72
2023-01-25T07:06:14.942Z,-1.76
2023-01-25T07:09:24.296Z,-1.82
2023-01-25T07:12:35.108Z,-1.77
2023-01-25T07:15:41.145Z,-1.83
2023-01-25T07:18:49.023Z,-1.76
2023-01-25T07:21:55.390Z,-1.67
2023-01-25T07:25:02.517Z,-1.68
2023-01-25T07:28:11.426Z,-1.59
2023-01-25T07:31:20.287Z,-1.60
2023-01-25T07:34:26.805Z,-1.64
2023-01-25T07:37:34.671Z,-1.96
2023-01-25T07:40:40.798Z,-1.83
2023-01-25T07:43:50.447Z,-1.92
2023-01-25T07:47:08.048Z,-1.76
2023-01-25T07:50:16.421Z,-1.82
2023-01-25T07:53:22.573Z,-1.94
2023-01-25T07:56:32.588Z,-1.91
2023-01-25T07:59:41.409Z,-1.81
2023-01-25T08:02:48.463Z,-1.81
2023-01-25T08:05:55.386Z,-1.76
2023-01-25T08:09:03.592Z,-1.47
2023-01-25T08:12:11.145Z,-1.42
2023-01-25T08:15:20.824Z,-1.34
2023-01-25T08:18:27.092Z,-1.39
2023-01-25T08:21:38.076Z,-1.66
2023-01-25T08:24:44.935Z,-1.69
2023-01-25T08:27:52.455Z,-1.66
2023-01-25T08:31:09.930Z,-1.63
2023-01-25T08:34:18.069Z,-1.64
2023-01-25T08:37:24.307Z,-1.48
2023-01-25T08:40:31.412Z,-1.35
2023-01-25T08:43:38.674Z,-1.67
2023-01-25T08:46:48.257Z,-1.91
2023-01-25T08:49:55.655Z,-1.56
2023-01-25T08:53:02.603Z,-1.32
2023-01-25T08:56:11.346Z,-1.24
2023-01-25T08:59:18.197Z,-1.27
2023-01-25T09:02:26.985Z,-1.12
2023-01-25T09:05:33.969Z,-1.07
2023-01-25T09:08:41.364Z,-1.01
2023-01-25T09:11:48.446Z,-0.91
2023-01-25T09:14:54.460Z,-0.87
2023-01-25T09:18:04.138Z,-0.87
2023-01-25T09:21:12.166Z,-0.83
2023-01-25T09:24:19.064Z,-0.80
2023-01-25T09:27:25.210Z,-0.87
2023-01-25T09:30:45.518Z,-1.06
2023-01-25T09:34:04.915Z,-1.02
2023-01-25T09:37:11.947Z,-0.94
2023-01-25T09:40:27.032Z,-0.88
2023-01-25T09:44:07.442Z,-0.80
2023-01-25T09:47:32.387Z,-0.75
2023-01-25T09:51:18.823Z,-0.65
2023-01-25T09:54:31.675Z,-0.70
2023-01-25T09:57:44.227Z,-0.68
2023-01-25T10:00:55.834Z,-0.60
2023-01-25T10:04:13.760Z,-0.50
2023-01-25T10:07:30.888Z,-0.39
2023-01-25T10:10:43.168Z,-0.42
2023-01-25T10:13:49.749Z,-0.69
2023-01-25T10:17:11.863Z,-0.73
2023-01-25T10:20:34.852Z,-0.62
2023-01-25T10:24:21.484Z,-0.59
2023-01-25T10:27:47.491Z,-0.51
2023-01-25T10:31:03.882Z,-0.37
2023-01-25T10:34:23.325Z,-0.54
2023-01-25T10:37:35.697Z,-0.48
2023-01-25T10:40:54.000Z,-0.48
2023-01-25T10:44:13.506Z,-0.35
2023-01-25T10:47:30.056Z,-0.39
2023-01-25T10:50:51.632Z,-0.57
2023-01-25T10:54:05.924Z,-0.61
2023-01-25T10:57:22.382Z,-0.67
2023-01-25T11:00:33.156Z,-0.70
2023-01-25T11:03:44.997Z,-0.57
2023-01-25T11:06:53.584Z,-0.58
2023-01-25T11:10:00.727Z,-0.52
2023-01-25T11:13:25.299Z,-0.42
2023-01-25T11:16:42.114Z,-0.61
2023-01-25T11:19:48.395Z,-0.47
2023-01-25T11:22:58.444Z,-0.32
2023-01-25T11:26:23.438Z,-0.39
2023-01-25T11:29:32.972Z,-0.44
2023-01-25T11:32:42.229Z,-0.59
2023-01-25T11:36:33.132Z,-0.78
2023-01-25T11:40:07.059Z,-0.67
2023-01-25T11:43:44.589Z,-0.52
2023-01-25T11:47:16.104Z,-0.44
2023-01-25T11:50:39.160Z,-0.40
2023-01-25T11:54:21.373Z,-0.26
2023-01-25T11:57:54.066Z,-0.07
2023-01-25T12:01:20.618Z,0.06
2023-01-25T12:05:21.609Z,0.16
2023-01-25T12:09:13.722Z,-0.48
2023-01-25T12:12:45.778Z,-1.19
2023-01-25T12:16:26.372Z,-0.53
2023-01-25T12:19:57.499Z,-0.24
2023-01-25T12:23:46.801Z,-0.33
2023-01-25T12:27:10.803Z,-0.14
2023-01-25T12:30:30.256Z,-0.03
2023-01-25T12:33:46.078Z,-0.04
2023-01-25T12:36:54.334Z,0.17
2023-01-25T12:40:14.504Z,0.14
2023-01-25T12:43:31.476Z,-0.11
2023-01-25T12:46:52.555Z,-0.26
2023-01-25T12:50:08.362Z,-0.09
2023-01-25T12:53:24.906Z,0.01
2023-01-25T12:56:45.986Z,-0.00
2023-01-25T13:00:10.741Z,-0.12
2023-01-25T13:03:37.857Z,0.08
2023-01-25T13:06:57.926Z,0.22
2023-01-25T13:10:19.747Z,0.22
2023-01-25T13:13:33.524Z,0.20
2023-01-25T13:16:53.897Z,0.21
2023-01-25T13:20:06.641Z,0.17
2023-01-25T13:23:44.075Z,0.16
2023-01-25T13:27:04.421Z,0.20
2023-01-25T13:30:36.622Z,0.37
2023-01-25T13:33:44.323Z,0.45
2023-01-25T13:36:52.360Z,0.28
2023-01-25T13:40:09.681Z,0.42
2023-01-25T13:43:24.933Z,0.42
2023-01-25T13:46:34.679Z,0.40
2023-01-25T13:49:50.579Z,0.53
2023-01-25T13:53:02.319Z,0.57
2023-01-25T13:56:24.277Z,0.36
2023-01-25T13:59:32.156Z,0.30
2023-01-25T14:02:46.300Z,0.25
2023-01-25T14:05:58.773Z,0.04
2023-01-25T14:09:16.893Z,0.21
2023-01-25T14:12:39.354Z,0.05
2023-01-25T14:15:59.315Z,0.04
2023-01-25T14:19:31.527Z,-0.15
2023-01-25T14:22:37.585Z,-0.16
2023-01-25T14:25:44.770Z,-0.49
2023-01-25T14:29:01.128Z,-0.33
2023-01-25T14:32:09.807Z,-0.31
2023-01-25T14:35:53.713Z,-0.37
2023-01-25T14:39:04.476Z,-0.45
2023-01-25T14:42:12.121Z,-0.67
2023-01-25T14:45:20.951Z,-0.58
2023-01-25T14:48:45.386Z,-0.61
2023-01-25T14:52:05.727Z,-0.70
2023-01-25T14:55:13.101Z,-0.84
2023-01-25T14:58:25.897Z,-0.70
2023-01-25T15:01:40.304Z,-0.57
2023-01-25T15:05:04.912Z,-0.61
2023-01-25T15:08:32.762Z,-0.70
2023-01-25T15:11:50.135Z,-0.70
2023-01-25T15:15:00.267Z,-0.72
2023-01-25T15:18:07.875Z,-0.75
2023-01-25T15:21:16.333Z,-0.87
2023-01-25T15:24:26.613Z,-0.80
2023-01-25T15:27:32.998Z,-0.87
2023-01-25T15:30:40.095Z,-0.76
2023-01-25T15:33:46.250Z,-0.82
2023-01-25T15:36:53.288Z,-0.82
2023-01-25T15:40:02.031Z,-0.84
2023-01-25T15:43:09.160Z,-0.72
2023-01-25T15:46:22.618Z,-0.68
2023-01-25T15:49:33.440Z,-0.60
2023-01-25T15:52:39.618Z,-0.58
2023-01-25T15:55:55.736Z,-0.88
2023-01-25T15:59:08.552Z,-0.95
2023-01-25T16:02:19.836Z,-1.04
2023-01-25T16:05:26.077Z,-1.00
2023-01-25T16:08:37.298Z,-0.77
2023-01-25T16:11:46.933Z,-0.71
2023-01-25T16:14:53.901Z,-0.55
2023-01-25T16:18:00.080Z,-0.52
2023-01-25T16:21:07.488Z,-0.72
2023-01-25T16:24:14.847Z,-0.70
2023-01-25T16:27:25.906Z,-0.66
2023-01-25T16:30:34.434Z,-0.59
2023-01-25T16:33:41.380Z,-0.49
2023-01-25T16:36:50.690Z,-0.57
2023-01-25T16:39:57.824Z,-0.56
2023-01-25T16:43:07.310Z,-0.67
2023-01-25T16:46:21.133Z,-0.71
2023-01-25T16:49:30.800Z,-0.64
2023-01-25T16:52:37.728Z,-0.64
2023-01-25T16:55:43.873Z,-0.69
2023-01-25T16:58:56.615Z,-0.61
2023-01-25T17:02:03.043Z,-0.63
2023-01-25T17:05:12.154Z,-0.78
2023-01-25T17:08:18.374Z,-0.79
2023-01-25T17:11:25.480Z,-0.81
2023-01-25T17:14:34.376Z,-0.84
2023-01-25T17:17:41.385Z,-0.81
2023-01-25T17:20:47.526Z,-1.16
2023-01-25T17:23:55.571Z,-1.12
2023-01-25T17:27:02.381Z,-0.93
2023-01-25T17:30:14.374Z,-0.97
2023-01-25T17:33:20.776Z,-0.90
2023-01-25T17:36:27.811Z,-0.86
2023-01-25T17:39:34.075Z,-0.87
2023-01-25T17:42:41.008Z,-0.87
2023-01-25T17:45:50.258Z,-0.99
2023-01-25T17:48:58.272Z,-1.04
2023-01-25T17:52:04.464Z,-1.06
2023-01-25T17:55:12.725Z,-1.15
2023-01-25T17:58:18.981Z,-1.10
2023-01-25T18:01:32.293Z,-1.13
2023-01-25T18:04:38.723Z,-1.15
2023-01-25T18:07:46.879Z,-1.11
2023-01-25T18:10:53.192Z,-1.18
2023-01-25T18:14:03.277Z,-1.30
2023-01-25T18:17:12.369Z,-1.47
2023-01-25T18:20:20.212Z,-1.41
2023-01-25T18:23:26.836Z,-1.41
2023-01-25T18:26:38.349Z,-1.30
2023-01-25T18:29:55.762Z,-1.24
2023-01-25T18:33:05.807Z,-1.26
2023-01-25T18:36:16.618Z,-1.36
2023-01-25T18:39:23.677Z,-1.29
2023-01-25T18:42:30.772Z,-1.26
2023-01-25T18:45:37.937Z,-1.41
2023-01-25T18:48:47.423Z,-1.47
2023-01-25T18:52:10.456Z,-1.53
2023-01-25T18:55:17.353Z,-1.54
2023-01-25T18:58:24.512Z,-1.60
2023-01-25T19:01:30.913Z,-1.61
2023-01-25T19:04:40.625Z,-1.60
2023-01-25T19:07:46.775Z,-1.58
2023-01-25T19:10:53.741Z,-1.56
2023-01-25T19:14:00.917Z,-1.63
2023-01-25T19:17:08.609Z,-1.96
2023-01-25T19:20:17.626Z,-1.75
2023-01-25T19:23:24.548Z,-1.65
2023-01-25T19:26:31.064Z,-1.63
2023-01-25T19:29:38.100Z,-1.90
2023-01-25T19:32:44.415Z,-2.05
2023-01-25T19:36:04.541Z,-2.62
2023-01-25T19:39:11.917Z,-2.42
2023-01-25T19:42:19.214Z,-2.22
2023-01-25T19:45:25.580Z,-2.16
2023-01-25T19:48:34.912Z,-2.13
2023-01-25T19:51:53.472Z,-2.39
2023-01-25T19:55:02.927Z,-2.42
2023-01-25T19:58:10.512Z,-2.33
2023-01-25T20:01:21.454Z,-2.51
2023-01-25T20:04:28.149Z,-2.46
2023-01-25T20:07:37.890Z,-2.62
2023-01-25T20:10:46.174Z,-2.70
2023-01-25T20:13:58.697Z,-2.99
2023-01-25T20:17:05.420Z,-3.00
2023-01-25T20:20:16.809Z,-2.86
2023-01-25T20:23:29.445Z,-2.82
2023-01-25T20:26:39.985Z,-2.80
2023-01-25T20:29:46.732Z,-2.88
2023-01-25T20:32:53.845Z,-2.88
2023-01-25T20:36:04.031Z,-2.83
2023-01-25T20:39:17.781Z,-2.57
2023-01-25T20:42:24.431Z,-2.53
2023-01-25T20:45:31.665Z,-2.36
2023-01-25T20:48:39.036Z,-2.36
2023-01-25T20:51:46.905Z,-2.28
2023-01-25T20:54:56.476Z,-2.30
2023-01-25T20:58:03.582Z,-2.28
2023-01-25T21:01:17.772Z,-2.26
2023-01-25T21:04:24.971Z,-2.25
2023-01-25T21:07:31.159Z,-2.28
2023-01-25T21:10:40.727Z,-2.22
2023-01-25T21:13:46.873Z,-2.36
2023-01-25T21:16:53.841Z,-2.37
2023-01-25T21:20:00.600Z,-2.41
2023-01-25T21:23:07.770Z,-2.56
2023-01-25T21:26:19.915Z,-2.49
2023-01-25T21:29:26.901Z,-2.46
2023-01-25T21:32:33.221Z,-2.41
2023-01-25T21:35:42.435Z,-2.32
2023-01-25T21:38:51.611Z,-2.36
2023-01-25T21:42:01.272Z,-2.29
2023-01-25T21:45:21.536Z,-2.34
2023-01-25T21:48:40.939Z,-2.41
2023-01-25T21:51:51.935Z,-2.44
2023-01-25T21:54:58.936Z,-2.57
2023-01-25T21:58:07.705Z,-2.45
2023-01-25T22:01:14.678Z,-2.44
2023-01-25T22:04:24.100Z,-2.33
2023-01-25T22:07:33.519Z,-2.28
2023-01-25T22:10:39.775Z,-2.23
2023-01-25T22:13:49.425Z,-2.14
2023-01-25T22:16:57.222Z,-2.15
2023-01-25T22:20:04.199Z,-2.15
2023-01-25T22:23:10.262Z,-2.19
2023-01-25T22:26:20.003Z,-2.12
2023-01-25T22:29:30.081Z,-2.05
2023-01-25T22:32:37.004Z,-2.03
2023-01-25T22:35:43.171Z,-2.05
2023-01-25T22:38:50.751Z,-2.07
2023-01-25T22:41:56.881Z,-2.18
2023-01-25T22:45:06.914Z,-2.29
2023-01-25T22:48:12.983Z,-2.62
2023-01-25T22:51:25.438Z,-2.65
2023-01-25T22:54:31.930Z,-2.67
2023-01-25T22:57:40.632Z,-2.54
2023-01-25T23:00:49.744Z,-2.92
2023-01-25T23:03:57.648Z,-3.11
2023-01-25T23:07:13.108Z,-3.38
2023-01-25T23:10:21.131Z,-3.23
2023-01-25T23:13:27.266Z,-3.23
2023-01-25T23:16:37.857Z,-2.92
2023-01-25T23:19:43.619Z,-2.92
2023-01-25T23:22:50.601Z,-2.91
2023-01-25T23:25:58.322Z,-2.80
2023-01-25T23:29:05.204Z,-2.79
2023-01-25T23:32:13.901Z,-2.80
2023-01-25T23:35:23.427Z,-2.73
2023-01-25T23:38:29.419Z,-2.66
2023-01-25T23:41:37.036Z,-2.61
2023-01-25T23:44:43.068Z,-2.68
2023-01-25T23:47:52.555Z,-2.77
2023-01-25T23:50:59.813Z,-2.85
2023-01-25T23:54:07.091Z,-3.17
2023-01-25T23:57:13.206Z,-3.29
